createdAt,value
2023-03-06T00:02:57.774Z,3.70
2023-03-06T00:08:08.920Z,3.60
2023-03-06T00:13:29.114Z,3.60
2023-03-06T00:18:48.941Z,3.60
2023-03-06T00:24:00.666Z,3.60
2023-03-06T00:29:09.602Z,3.70
2023-03-06T00:34:16.706Z,3.60
2023-03-06T00:39:24.315Z,3.70
2023-03-06T00:44:32.080Z,3.60
2023-03-06T00:49:40.209Z,3.70
2023-03-06T00:54:45.450Z,3.60
2023-03-06T00:59:56.037Z,3.50
2023-03-06T01:05:04.175Z,3.50
2023-03-06T01:10:19.450Z,3.60
2023-03-06T01:15:32.223Z,3.60
2023-03-06T01:20:44.454Z,3.60
2023-03-06T01:25:55.058Z,3.50
2023-03-06T01:31:07.436Z,3.50
2023-03-06T01:36:20.003Z,3.50
2023-03-06T01:41:31.585Z,3.50
2023-03-06T01:46:50.269Z,3.40
2023-03-06T01:52:13.593Z,3.40
2023-03-06T01:57:29.126Z,3.30
2023-03-06T02:02:53.074Z,3.40
2023-03-06T02:08:04.599Z,3.30
2023-03-06T02:13:10.295Z,3.30
2023-03-06T02:18:22.462Z,3.10
2023-03-06T02:23:37.404Z,3.10
2023-03-06T02:29:04.501Z,3.10
2023-03-06T02:34:55.595Z,3.00
2023-03-06T02:40:15.584Z,3.00
2023-03-06T02:45:35.763Z,3.10
2023-03-06T02:50:49.064Z,3.00
2023-03-06T02:56:18.303Z,2.80
2023-03-06T03:01:37.147Z,2.90
2023-03-06T03:06:44.839Z,2.80
2023-03-06T03:11:51.452Z,2.70
2023-03-06T03:17:11.203Z,2.50
2023-03-06T03:22:26.246Z,2.40
2023-03-06T03:27:36.548Z,2.20
2023-03-06T03:32:47.595Z,2.30
2023-03-06T03:38:05.055Z,2.30
2023-03-06T03:43:12.547Z,2.30
2023-03-06T03:48:25.454Z,2.20
2023-03-06T03:53:45.230Z,2.10
2023-03-06T03:59:01.808Z,2.10
2023-03-06T04:04:11.265Z,2.10
2023-03-06T04:09:17.920Z,2.10
2023-03-06T04:14:28.805Z,2.10
2023-03-06T04:19:42.368Z,2.00
2023-03-06T04:24:53.811Z,2.00
2023-03-06T04:30:06.726Z,1.90
2023-03-06T04:35:17.610Z,1.90
2023-03-06T04:59:11.406Z,1.80
2023-03-06T05:36:43.532Z,1.60
2023-03-06T05:43:04.379Z,1.40
2023-03-06T05:48:59.388Z,1.60
2023-03-06T06:07:56.973Z,1.70
2023-03-06T06:19:41.677Z,2.30
2023-03-06T06:26:05.294Z,2.50
2023-03-06T10:51:30.112Z,7.50
2023-03-06T10:56:58.026Z,8.00
2023-03-06T11:02:39.971Z,7.90
2023-03-06T11:08:12.539Z,7.90
2023-03-06T11:13:48.099Z,8.20
2023-03-06T11:19:38.674Z,8.60
2023-03-06T11:25:11.616Z,7.40
2023-03-06T11:30:52.929Z,6.60
2023-03-06T11:36:12.227Z,6.40
2023-03-06T11:41:39.099Z,6.10
2023-03-06T11:53:15.969Z,6.00
2023-03-06T11:58:49.597Z,6.10
2023-03-06T12:04:10.148Z,6.10
2023-03-06T12:09:34.895Z,6.10
2023-03-06T12:14:53.529Z,7.70
2023-03-06T12:20:23.750Z,9.70
2023-03-06T12:25:34.999Z,11.30
2023-03-06T12:31:02.306Z,13.90
2023-03-06T12:36:18.720Z,14.50
2023-03-06T12:41:35.992Z,12.20
2023-03-06T12:46:44.298Z,9.80
2023-03-06T12:51:47.830Z,8.40
2023-03-06T12:56:53.771Z,7.70
2023-03-06T13:02:15.632Z,7.40
2023-03-06T13:07:35.181Z,7.40
2023-03-06T13:12:51.214Z,7.50
2023-03-06T13:17:53.963Z,7.10
2023-03-06T13:22:56.911Z,6.00
2023-03-06T13:28:05.712Z,5.20
2023-03-06T13:33:44.042Z,4.60
2023-03-06T13:38:57.541Z,4.40
2023-03-06T13:44:03.505Z,4.70
2023-03-06T13:49:16.838Z,5.30
2023-03-06T13:54:28.366Z,5.50
2023-03-06T14:00:03.111Z,5.70
2023-03-06T14:05:13.416Z,6.20
2023-03-06T14:10:22.032Z,6.60
2023-03-06T14:15:28.931Z,7.40
2023-03-06T14:20:36.510Z,8.40
2023-03-06T14:25:40.385Z,8.90
2023-03-06T14:30:51.819Z,9.20
2023-03-06T14:35:57.481Z,9.30
2023-03-06T14:41:00.438Z,8.70
2023-03-06T14:46:07.838Z,8.00
2023-03-06T14:51:18.285Z,7.70
2023-03-06T14:56:23.032Z,7.60
2023-03-06T15:01:38.973Z,7.50
2023-03-06T15:06:43.777Z,7.20
2023-03-06T15:12:00.891Z,7.30
2023-03-06T15:17:25.053Z,7.20
2023-03-06T15:22:37.375Z,7.00
2023-03-06T15:27:40.107Z,6.90
2023-03-06T15:32:44.564Z,7.10
2023-03-06T15:37:47.285Z,7.30
2023-03-06T15:42:50.636Z,7.00
2023-03-06T15:47:55.933Z,6.60
2023-03-06T15:53:01.460Z,6.30
2023-03-06T15:58:05.009Z,6.10
2023-03-06T16:03:11.998Z,6.00
2023-03-06T16:08:16.172Z,5.80
2023-03-06T16:13:25.338Z,5.50
2023-03-06T16:18:31.469Z,5.00
2023-03-06T16:23:38.722Z,3.90
2023-03-06T16:28:41.824Z,3.30
2023-03-06T16:33:45.863Z,3.00
2023-03-06T16:38:49.026Z,2.90
2023-03-06T16:43:51.887Z,2.90
2023-03-06T16:48:56.087Z,3.00
2023-03-06T16:53:58.886Z,2.90
2023-03-06T16:59:01.625Z,2.90
2023-03-06T17:04:05.781Z,3.00
2023-03-06T17:09:08.527Z,2.90
2023-03-06T17:14:11.204Z,2.90
2023-03-06T17:19:16.067Z,2.80
2023-03-06T17:24:19.265Z,3.10
2023-03-06T17:29:22.007Z,2.90
2023-03-06T17:34:29.820Z,2.90
2023-03-06T17:39:33.412Z,2.80
2023-03-06T17:44:36.862Z,2.90
2023-03-06T17:49:48.431Z,2.80
2023-03-06T17:54:51.227Z,2.80
2023-03-06T18:00:09.552Z,3.10
2023-03-06T18:05:18.082Z,3.10
2023-03-06T18:10:24.230Z,3.00
2023-03-06T18:15:27.041Z,3.00
2023-03-06T18:20:31.121Z,2.90
2023-03-06T18:25:33.975Z,2.80
2023-03-06T18:30:46.540Z,2.90
2023-03-06T18:35:50.761Z,3.00
2023-03-06T18:41:10.042Z,3.00
2023-03-06T18:46:13.436Z,3.00
2023-03-06T18:51:20.073Z,3.00
2023-03-06T19:02:34.102Z,3.10
2023-03-06T19:07:40.300Z,3.10
2023-03-06T19:12:58.698Z,3.10
2023-03-06T19:18:11.412Z,3.00
2023-03-06T19:23:16.686Z,2.90
2023-03-06T19:28:19.500Z,2.90
2023-03-06T19:33:31.649Z,2.80
2023-03-06T19:45:39.456Z,2.80
2023-03-06T19:51:32.687Z,2.90
2023-03-06T19:57:30.879Z,3.00
2023-03-06T20:09:50.237Z,2.90
2023-03-06T20:34:48.928Z,2.90
2023-03-06T20:58:46.963Z,2.90
2023-03-06T21:03:50.676Z,2.70
2023-03-06T21:08:54.044Z,2.60
2023-03-06T21:14:02.275Z,2.70
2023-03-06T21:19:05.489Z,2.90
2023-03-06T21:24:09.391Z,3.00
2023-03-06T21:29:14.263Z,3.10
2023-03-06T21:34:20.083Z,2.80
2023-03-06T21:39:23.944Z,2.70
2023-03-06T21:44:31.641Z,2.90
2023-03-06T21:49:35.409Z,3.00
2023-03-06T21:54:38.236Z,3.00
2023-03-06T21:59:42.989Z,2.90
2023-03-06T22:04:45.706Z,2.60
2023-03-06T22:09:48.820Z,2.20
2023-03-06T22:14:52.890Z,1.90
2023-03-06T22:19:55.791Z,1.70
2023-03-06T22:24:58.604Z,1.40
2023-03-06T22:30:02.821Z,1.60
2023-03-06T22:35:06.584Z,1.40
2023-03-06T22:40:10.755Z,1.30
2023-03-06T22:45:15.071Z,1.40
2023-03-06T22:50:18.690Z,1.40
2023-03-06T22:55:21.471Z,1.50
2023-03-06T23:00:26.323Z,1.70
2023-03-06T23:05:29.752Z,1.60
2023-03-06T23:10:32.592Z,1.40
2023-03-06T23:15:37.983Z,1.20
2023-03-06T23:20:43.356Z,1.60
2023-03-06T23:25:46.227Z,1.80
2023-03-06T23:30:50.398Z,2.10
2023-03-06T23:35:53.278Z,2.10
2023-03-06T23:40:56.017Z,2.20
2023-03-06T23:46:00.514Z,2.30
2023-03-06T23:51:06.406Z,2.10
2023-03-06T23:56:10.085Z,2.10
